createdAt,value
2018-09-17T00:00:23.054Z,54.77
2018-09-17T00:02:50.303Z,54.51
2018-09-17T00:05:17.550Z,54.26
2018-09-17T00:07:44.795Z,54.34
2018-09-17T00:10:12.023Z,54.64
2018-09-17T00:12:39.296Z,55.01
2018-09-17T00:15:06.743Z,54.86
2018-09-17T00:17:34.003Z,54.38
2018-09-17T00:22:51.386Z,54.04
2018-09-17T00:25:18.659Z,54.43
2018-09-17T00:27:45.912Z,54.21
2018-09-17T00:30:13.122Z,54.40
2018-09-17T00:32:40.376Z,54.08
2018-09-17T00:35:07.772Z,53.82
2018-09-17T00:37:35.334Z,53.54
2018-09-17T00:40:02.595Z,53.42
2018-09-17T00:42:29.863Z,53.74
2018-09-17T00:44:57.108Z,54.35
2018-09-17T00:47:24.382Z,54.02
2018-09-17T00:49:51.746Z,54.99
2018-09-17T00:52:19.035Z,55.51
2018-09-17T00:54:46.293Z,54.63
2018-09-17T00:57:13.637Z,55.14
2018-09-17T00:59:40.856Z,54.55
2018-09-17T01:02:08.103Z,53.89
2018-09-17T01:04:35.359Z,53.86
2018-09-17T01:07:02.626Z,54.36
2018-09-17T01:09:35.410Z,55.16
2018-09-17T01:12:02.654Z,55.42
2018-09-17T01:14:29.950Z,55.46
2018-09-17T01:16:57.187Z,56.29
2018-09-17T01:19:24.478Z,56.30
2018-09-17T01:21:51.749Z,56.18
2018-09-17T01:24:19.197Z,57.03
2018-09-17T01:26:46.508Z,57.18
2018-09-17T01:29:13.759Z,58.34
2018-09-17T01:31:40.970Z,58.48
2018-09-17T01:34:08.243Z,58.95
2018-09-17T01:36:35.524Z,58.93
2018-09-17T01:39:02.990Z,57.39
2018-09-17T01:41:30.271Z,57.53
2018-09-17T01:43:57.540Z,58.81
2018-09-17T01:46:24.794Z,58.95
2018-09-17T01:48:52.086Z,59.25
2018-09-17T01:51:19.704Z,59.13
2018-09-17T01:53:47.016Z,59.72
2018-09-17T01:56:14.254Z,59.80
2018-09-17T01:58:41.543Z,59.82
2018-09-17T02:01:08.951Z,59.52
2018-09-17T02:03:36.187Z,58.92
2018-09-17T02:06:03.557Z,58.72
2018-09-17T02:08:30.829Z,58.55
2018-09-17T02:10:58.115Z,57.54
2018-09-17T02:13:25.725Z,57.47
2018-09-17T02:15:52.959Z,56.49
2018-09-17T02:18:20.250Z,56.66
2018-09-17T02:20:47.478Z,57.41
2018-09-17T02:23:15.019Z,58.07
2018-09-17T02:25:42.285Z,59.00
2018-09-17T02:28:10.069Z,58.96
2018-09-17T02:30:37.330Z,58.72
2018-09-17T02:33:04.597Z,58.35
2018-09-17T02:35:31.871Z,57.81
2018-09-17T02:37:59.097Z,57.88
2018-09-17T02:40:26.399Z,58.32
2018-09-17T02:42:53.684Z,57.92
2018-09-17T02:45:21.083Z,58.22
2018-09-17T02:47:48.333Z,58.07
2018-09-17T02:50:15.606Z,58.63
2018-09-17T02:52:42.863Z,58.58
2018-09-17T02:55:10.186Z,59.06
2018-09-17T02:57:37.848Z,58.85
2018-09-17T03:00:06.028Z,58.81
2018-09-17T03:02:33.232Z,58.32
2018-09-17T03:05:00.520Z,58.81
2018-09-17T03:07:27.987Z,58.68
2018-09-17T03:09:55.251Z,58.75
2018-09-17T03:12:22.456Z,58.08
2018-09-17T03:14:49.719Z,57.77
2018-09-17T03:17:16.950Z,58.04
2018-09-17T03:19:46.107Z,58.24
2018-09-17T03:22:15.086Z,58.67
2018-09-17T03:24:43.796Z,59.09
2018-09-17T03:27:11.055Z,59.20
2018-09-17T03:29:38.345Z,59.95
2018-09-17T03:32:05.648Z,59.83
2018-09-17T03:34:33.127Z,59.63
2018-09-17T03:37:00.572Z,60.43
2018-09-17T03:39:27.882Z,60.55
2018-09-17T03:41:55.149Z,61.08
2018-09-17T03:44:22.412Z,61.68
2018-09-17T03:46:49.694Z,61.79
2018-09-17T03:49:16.973Z,62.06
2018-09-17T03:51:44.210Z,62.19
2018-09-17T03:54:11.478Z,61.93
2018-09-17T03:56:38.840Z,62.24
2018-09-17T03:59:06.280Z,61.72
2018-09-17T04:01:33.549Z,62.40
2018-09-17T04:04:00.781Z,62.19
2018-09-17T04:06:28.063Z,61.77
2018-09-17T04:08:55.323Z,62.41
2018-09-17T04:11:22.604Z,62.12
2018-09-17T04:13:49.847Z,62.71
2018-09-17T04:16:17.375Z,62.33
2018-09-17T04:18:45.003Z,62.03
2018-09-17T04:21:12.271Z,62.33
2018-09-17T04:23:39.552Z,61.49
2018-09-17T04:26:09.228Z,62.08
2018-09-17T04:28:37.255Z,61.91
2018-09-17T04:31:04.843Z,62.29
2018-09-17T04:33:35.640Z,62.62
2018-09-17T04:36:03.058Z,62.53
2018-09-17T04:38:30.457Z,62.58
2018-09-17T04:40:57.829Z,62.43
2018-09-17T04:43:25.300Z,62.16
2018-09-17T04:45:52.691Z,62.76
2018-09-17T04:48:20.076Z,61.85
2018-09-17T04:50:47.512Z,62.17
2018-09-17T04:53:15.503Z,61.35
2018-09-17T04:55:43.470Z,60.79
2018-09-17T04:58:11.835Z,61.45
2018-09-17T05:00:39.255Z,61.55
2018-09-17T05:03:06.561Z,61.62
2018-09-17T05:05:34.228Z,61.45
2018-09-17T05:08:02.532Z,62.16
2018-09-17T05:10:29.879Z,62.23
2018-09-17T05:12:58.482Z,62.89
2018-09-17T05:15:25.897Z,62.03
2018-09-17T05:17:53.502Z,62.12
2018-09-17T05:20:21.100Z,62.10
2018-09-17T05:22:48.469Z,61.78
2018-09-17T05:25:16.985Z,62.04
2018-09-17T05:27:44.404Z,63.04
2018-09-17T05:30:11.762Z,63.54
2018-09-17T05:32:40.387Z,63.37
2018-09-17T05:35:09.012Z,63.11
2018-09-17T05:37:36.467Z,62.93
2018-09-17T05:40:04.388Z,62.82
2018-09-17T05:42:31.939Z,62.34
2018-09-17T05:44:59.500Z,62.32
2018-09-17T05:47:26.884Z,61.48
2018-09-17T05:49:54.240Z,61.47
2018-09-17T05:52:21.599Z,61.20
2018-09-17T05:54:48.963Z,60.45
2018-09-17T05:57:16.294Z,60.41
2018-09-17T05:59:44.260Z,60.23
2018-09-17T06:02:11.571Z,60.57
2018-09-17T06:04:38.960Z,60.07
2018-09-17T06:07:06.408Z,60.07
2018-09-17T06:09:33.870Z,59.82
2018-09-17T06:12:01.220Z,59.48
2018-09-17T06:14:28.570Z,59.35
2018-09-17T06:16:55.827Z,59.80
2018-09-17T06:19:23.129Z,58.97
2018-09-17T06:21:50.415Z,58.98
2018-09-17T06:24:17.803Z,58.36
2018-09-17T06:29:19.073Z,56.26
2018-09-17T06:31:46.409Z,55.64
2018-09-17T06:34:13.764Z,55.94
2018-09-17T06:36:41.084Z,55.26
2018-09-17T06:39:09.206Z,54.45
2018-09-17T06:41:36.613Z,53.96
2018-09-17T06:44:03.975Z,53.72
2018-09-17T06:46:31.377Z,52.48
2018-09-17T06:48:58.631Z,52.07
2018-09-17T06:51:26.163Z,50.27
2018-09-17T06:53:54.426Z,48.59
2018-09-17T06:56:21.764Z,48.31
2018-09-17T06:58:49.053Z,47.22
2018-09-17T07:01:17.624Z,46.70
2018-09-17T07:03:46.012Z,46.54
2018-09-17T07:06:14.092Z,46.24
2018-09-17T07:08:41.967Z,46.33
2018-09-17T07:11:10.928Z,45.80
2018-09-17T07:13:39.301Z,44.04
2018-09-17T07:16:07.423Z,43.28
2018-09-17T07:18:36.270Z,43.35
2018-09-17T07:21:04.403Z,43.02
2018-09-17T07:23:32.459Z,42.07
2018-09-17T07:25:59.811Z,41.61
2018-09-17T07:28:27.138Z,40.92
2018-09-17T07:30:55.015Z,39.60
2018-09-17T07:33:22.306Z,39.79
2018-09-17T07:35:49.618Z,38.66
2018-09-17T07:38:16.949Z,38.78
2018-09-17T07:40:44.318Z,38.37
2018-09-17T07:43:11.792Z,37.92
2018-09-17T07:45:39.104Z,37.36
2018-09-17T07:48:06.960Z,36.21
2018-09-17T07:50:34.322Z,36.15
2018-09-17T07:53:01.843Z,35.70
2018-09-17T07:55:29.327Z,35.19
2018-09-17T07:57:56.686Z,34.53
2018-09-17T08:00:24.213Z,34.06
2018-09-17T08:02:51.558Z,33.66
2018-09-17T08:05:18.875Z,33.71
2018-09-17T08:07:48.374Z,33.83
2018-09-17T08:10:22.251Z,33.17
2018-09-17T08:13:05.880Z,32.46
2018-09-17T08:15:59.920Z,32.31
2018-09-17T08:18:42.483Z,33.22
2018-09-17T08:21:16.743Z,32.60
2018-09-17T08:23:44.175Z,32.15
2018-09-17T08:26:11.517Z,32.48
2018-09-17T08:28:53.898Z,31.91
2018-09-17T08:31:21.218Z,31.68
2018-09-17T08:33:48.680Z,31.87
2018-09-17T08:36:15.987Z,32.43
2018-09-17T08:38:43.481Z,32.50
2018-09-17T08:41:10.836Z,32.62
2018-09-17T08:43:38.355Z,32.15
2018-09-17T08:46:06.648Z,31.79
2018-09-17T08:48:34.088Z,31.66
2018-09-17T08:51:01.446Z,30.98
2018-09-17T08:53:29.013Z,31.19
2018-09-17T08:55:59.281Z,30.22
2018-09-17T08:58:31.298Z,29.88
2018-09-17T09:01:02.269Z,28.58
2018-09-17T09:03:35.401Z,29.39
2018-09-17T09:06:08.574Z,29.01
2018-09-17T09:08:35.971Z,28.62
2018-09-17T09:11:09.156Z,28.21
2018-09-17T09:13:42.223Z,28.31
2018-09-17T09:16:09.575Z,28.30
2018-09-17T09:18:36.936Z,27.53
2018-09-17T09:21:04.498Z,28.19
2018-09-17T09:23:32.051Z,28.22
2018-09-17T09:26:00.972Z,28.75
2018-09-17T09:28:28.344Z,27.84
2018-09-17T09:30:55.789Z,28.48
2018-09-17T09:33:23.142Z,28.55
2018-09-17T09:35:51.383Z,29.93
2018-09-17T09:38:19.197Z,29.46
2018-09-17T09:40:46.543Z,29.51
2018-09-17T09:43:13.867Z,29.70
2018-09-17T09:45:41.242Z,29.63
2018-09-17T09:48:08.653Z,29.45
2018-09-17T09:50:36.039Z,29.22
2018-09-17T09:53:03.700Z,29.01
2018-09-17T09:55:31.570Z,28.98
2018-09-17T09:57:58.901Z,27.64
2018-09-17T10:00:31.967Z,27.45
2018-09-17T10:03:05.856Z,26.70
2018-09-17T10:05:33.317Z,26.46
2018-09-17T10:08:00.712Z,26.22
2018-09-17T10:10:33.783Z,26.17
2018-09-17T10:13:06.836Z,24.60
2018-09-17T10:15:39.684Z,25.07
2018-09-17T10:18:12.818Z,25.64
2018-09-17T10:20:40.415Z,26.23
2018-09-17T10:23:07.772Z,25.98
2018-09-17T10:25:35.215Z,25.98
2018-09-17T10:28:02.587Z,26.05
2018-09-17T10:30:30.079Z,25.45
2018-09-17T10:32:57.530Z,26.11
2018-09-17T10:35:24.880Z,26.23
2018-09-17T10:37:52.278Z,26.29
2018-09-17T10:40:19.709Z,25.58
2018-09-17T10:42:47.147Z,25.26
2018-09-17T10:45:16.122Z,25.55
2018-09-17T10:47:43.574Z,25.04
2018-09-17T10:50:11.142Z,24.70
2018-09-17T10:52:39.464Z,24.37
2018-09-17T10:55:06.814Z,23.92
2018-09-17T10:57:34.266Z,24.11
2018-09-17T11:00:01.705Z,23.57
2018-09-17T11:02:29.070Z,23.58
2018-09-17T11:04:56.461Z,24.70
2018-09-17T11:07:23.877Z,24.41
2018-09-17T11:09:51.398Z,24.31
2018-09-17T11:12:18.944Z,23.92
2018-09-17T11:14:46.348Z,23.73
2018-09-17T11:17:13.688Z,23.61
2018-09-17T11:19:41.069Z,23.74
2018-09-17T11:22:08.690Z,24.56
2018-09-17T11:24:36.076Z,24.08
2018-09-17T11:27:03.495Z,24.01
2018-09-17T11:29:30.880Z,24.40
2018-09-17T11:31:58.404Z,23.99
2018-09-17T11:34:26.524Z,23.82
2018-09-17T11:36:53.927Z,23.29
2018-09-17T11:39:21.323Z,23.89
2018-09-17T11:41:48.673Z,23.73
2018-09-17T11:44:16.542Z,23.88
2018-09-17T11:46:44.092Z,23.60
2018-09-17T11:49:12.139Z,23.66
2018-09-17T11:51:39.444Z,23.68
2018-09-17T11:54:06.959Z,22.85
2018-09-17T11:56:34.362Z,22.49
2018-09-17T11:59:01.688Z,22.49
2018-09-17T12:01:35.094Z,22.86
2018-09-17T12:04:08.191Z,22.87
2018-09-17T12:06:41.167Z,23.54
2018-09-17T12:09:09.346Z,24.38
2018-09-17T12:11:36.693Z,24.50
2018-09-17T12:14:04.358Z,24.59
2018-09-17T12:16:31.817Z,24.34
2018-09-17T12:18:59.154Z,24.59
2018-09-17T12:21:26.515Z,24.94
2018-09-17T12:23:54.322Z,25.05
2018-09-17T12:26:22.058Z,24.52
2018-09-17T12:28:49.644Z,23.92
2018-09-17T12:31:17.208Z,24.13
2018-09-17T12:33:45.629Z,24.66
2018-09-17T12:36:13.010Z,23.81
2018-09-17T12:38:40.453Z,24.56
2018-09-17T12:41:07.834Z,24.36
2018-09-17T12:43:35.323Z,24.60
2018-09-17T12:46:02.672Z,24.17
2018-09-17T12:48:30.003Z,24.18
2018-09-17T12:50:57.481Z,24.37
2018-09-17T12:53:24.832Z,24.66
2018-09-17T12:55:52.185Z,24.56
2018-09-17T12:58:19.814Z,24.79
2018-09-17T13:00:47.479Z,24.58
2018-09-17T13:03:15.008Z,24.85
2018-09-17T13:05:42.425Z,24.71
2018-09-17T13:08:09.885Z,24.82
2018-09-17T13:10:37.332Z,24.99
2018-09-17T13:13:04.760Z,25.34
2018-09-17T13:15:32.192Z,25.88
2018-09-17T13:18:00.423Z,26.66
2018-09-17T13:20:28.058Z,26.61
2018-09-17T13:22:55.668Z,26.34
2018-09-17T13:25:23.316Z,26.69
2018-09-17T13:27:50.921Z,27.10
2018-09-17T13:30:18.545Z,27.17
2018-09-17T13:32:46.917Z,26.89
2018-09-17T13:35:14.443Z,26.37
2018-09-17T13:37:41.988Z,26.34
2018-09-17T13:40:09.352Z,26.82
2018-09-17T13:42:36.819Z,26.57
2018-09-17T13:45:04.419Z,27.25
2018-09-17T13:47:31.863Z,26.94
2018-09-17T13:49:59.360Z,26.95
2018-09-17T13:52:27.458Z,27.61
2018-09-17T13:54:54.836Z,26.78
2018-09-17T13:57:22.930Z,27.92
2018-09-17T13:59:50.363Z,28.10
2018-09-17T14:02:17.902Z,27.85
2018-09-17T14:04:46.465Z,27.92
2018-09-17T14:07:14.818Z,28.29
2018-09-17T14:09:42.321Z,28.18
2018-09-17T14:12:09.837Z,28.63
2018-09-17T14:14:37.840Z,28.00
2018-09-17T14:17:05.257Z,28.62
2018-09-17T14:19:33.076Z,28.38
2018-09-17T14:22:00.849Z,28.70
2018-09-17T14:24:28.235Z,29.40
2018-09-17T14:26:55.748Z,28.76
2018-09-17T14:29:23.111Z,29.10
2018-09-17T14:31:56.831Z,28.89
2018-09-17T14:34:24.183Z,28.77
2018-09-17T14:36:51.700Z,29.00
2018-09-17T14:39:19.050Z,29.54
2018-09-17T14:41:46.448Z,29.58
2018-09-17T14:44:13.824Z,29.23
2018-09-17T14:46:41.287Z,29.27
2018-09-17T14:49:08.748Z,29.23
2018-09-17T14:51:36.178Z,29.61
2018-09-17T14:54:03.652Z,29.47
2018-09-17T14:56:30.958Z,29.65
2018-09-17T14:58:58.307Z,29.45
2018-09-17T15:01:25.746Z,29.61
2018-09-17T15:03:53.113Z,29.35
2018-09-17T15:06:20.704Z,28.79
2018-09-17T15:08:48.226Z,29.09
2018-09-17T15:11:15.478Z,28.99
2018-09-17T15:13:44.211Z,29.71
2018-09-17T15:16:11.579Z,29.61
2018-09-17T15:18:39.710Z,29.97
2018-09-17T15:21:07.187Z,28.70
2018-09-17T15:23:34.694Z,29.05
2018-09-17T15:26:03.002Z,29.96
2018-09-17T15:28:30.713Z,29.66
2018-09-17T15:30:58.198Z,29.52
2018-09-17T15:33:25.506Z,30.59
2018-09-17T15:35:52.839Z,30.57
2018-09-17T15:38:20.930Z,30.79
2018-09-17T15:40:48.307Z,30.51
2018-09-17T15:43:15.666Z,30.27
2018-09-17T15:45:43.072Z,29.97
2018-09-17T15:48:10.467Z,29.54
2018-09-17T15:50:37.813Z,30.56
2018-09-17T15:53:05.158Z,30.81
2018-09-17T15:55:32.482Z,31.09
2018-09-17T15:58:00.089Z,31.21
2018-09-17T16:00:27.325Z,30.96
2018-09-17T16:02:55.491Z,31.21
2018-09-17T16:05:23.303Z,31.20
2018-09-17T16:07:50.740Z,31.46
2018-09-17T16:10:18.092Z,31.43
2018-09-17T16:12:46.024Z,32.14
2018-09-17T16:15:13.386Z,31.88
2018-09-17T16:17:40.977Z,32.29
2018-09-17T16:20:08.319Z,32.27
2018-09-17T16:22:35.692Z,32.02
2018-09-17T16:25:03.246Z,32.06
2018-09-17T16:27:37.486Z,32.89
2018-09-17T16:30:06.351Z,32.61
2018-09-17T16:32:34.410Z,32.83
2018-09-17T16:35:02.496Z,33.52
2018-09-17T16:37:29.873Z,33.96
2018-09-17T16:39:57.320Z,33.87
2018-09-17T16:42:24.666Z,35.03
2018-09-17T16:44:52.168Z,35.54
2018-09-17T16:47:19.717Z,35.88
2018-09-17T16:49:47.067Z,36.07
2018-09-17T16:52:14.572Z,37.24
2018-09-17T16:54:42.414Z,37.84
2018-09-17T16:57:09.940Z,37.83
2018-09-17T16:59:40.196Z,38.08
2018-09-17T17:02:08.664Z,38.56
2018-09-17T17:04:36.615Z,39.11
2018-09-17T17:07:04.003Z,39.52
2018-09-17T17:09:32.364Z,39.86
2018-09-17T17:11:59.849Z,39.94
2018-09-17T17:14:27.288Z,40.00
2018-09-17T17:16:54.763Z,40.17
2018-09-17T17:19:22.436Z,40.53
2018-09-17T17:21:49.927Z,40.89
2018-09-17T17:24:17.475Z,40.94
2018-09-17T17:26:44.832Z,41.34
2018-09-17T17:29:13.010Z,41.39
2018-09-17T17:31:41.146Z,41.18
2018-09-17T17:34:08.750Z,41.23
2018-09-17T17:36:36.741Z,41.43
2018-09-17T17:39:06.921Z,41.84
2018-09-17T17:41:34.202Z,42.46
2018-09-17T17:44:01.525Z,43.04
2018-09-17T17:46:30.144Z,43.29
2018-09-17T17:48:57.393Z,44.46
2018-09-17T17:51:24.677Z,45.47
2018-09-17T17:53:52.063Z,46.12
2018-09-17T17:56:19.387Z,45.82
2018-09-17T17:58:46.767Z,45.68
2018-09-17T18:01:14.250Z,46.35
2018-09-17T18:03:42.083Z,46.60
2018-09-17T18:06:09.369Z,47.16
2018-09-17T18:08:38.146Z,47.43
2018-09-17T18:11:06.394Z,47.57
2018-09-17T18:13:33.774Z,47.54
2018-09-17T18:16:01.363Z,47.67
2018-09-17T18:18:28.864Z,47.99
2018-09-17T18:20:56.806Z,48.68
2018-09-17T18:23:25.305Z,48.41
2018-09-17T18:25:52.659Z,48.68
2018-09-17T18:28:20.065Z,49.41
2018-09-17T18:30:48.038Z,49.22
2018-09-17T18:33:15.699Z,49.90
2018-09-17T18:35:43.043Z,49.88
2018-09-17T18:38:10.460Z,50.19
2018-09-17T18:40:37.954Z,50.39
2018-09-17T18:43:05.389Z,50.39
2018-09-17T18:45:33.093Z,50.27
2018-09-17T18:48:00.375Z,51.05
2018-09-17T18:50:28.019Z,51.54
2018-09-17T18:52:55.929Z,51.73
2018-09-17T18:55:23.225Z,51.48
2018-09-17T18:57:50.614Z,51.68
2018-09-17T19:00:17.941Z,51.93
2018-09-17T19:02:46.590Z,51.72
2018-09-17T19:05:13.924Z,51.90
2018-09-17T19:07:41.362Z,52.45
2018-09-17T19:10:09.423Z,52.12
2018-09-17T19:12:36.851Z,52.22
2018-09-17T19:15:09.870Z,52.79
2018-09-17T19:17:40.418Z,52.53
2018-09-17T19:20:09.327Z,52.85
2018-09-17T19:22:42.470Z,52.71
2018-09-17T19:25:11.611Z,52.55
2018-09-17T19:27:44.949Z,52.72
2018-09-17T19:30:12.544Z,52.85
2018-09-17T19:32:41.237Z,53.27
2018-09-17T19:35:08.786Z,53.03
2018-09-17T19:37:41.867Z,53.81
2018-09-17T19:40:14.326Z,53.58
2018-09-17T19:42:44.582Z,53.69
2018-09-17T19:45:17.521Z,53.61
2018-09-17T19:47:45.567Z,53.87
2018-09-17T19:50:20.378Z,54.05
2018-09-17T19:52:47.768Z,53.92
2018-09-17T19:55:16.361Z,54.23
2018-09-17T19:57:49.158Z,54.35
2018-09-17T20:00:16.518Z,53.81
2018-09-17T20:02:45.091Z,54.42
2018-09-17T20:05:19.162Z,54.29
2018-09-17T20:07:46.703Z,55.07
2018-09-17T20:10:14.001Z,53.87
2018-09-17T20:12:41.287Z,53.31
2018-09-17T20:15:08.603Z,53.01
2018-09-17T20:17:41.691Z,52.23
2018-09-17T20:20:09.283Z,51.88
2018-09-17T20:22:36.524Z,52.12
2018-09-17T20:25:03.846Z,51.75
2018-09-17T20:27:31.080Z,51.92
2018-09-17T20:29:58.335Z,51.99
2018-09-17T20:32:25.638Z,51.53
2018-09-17T20:34:52.903Z,51.42
2018-09-17T20:37:20.244Z,50.55
2018-09-17T20:39:47.608Z,49.96
2018-09-17T20:42:14.888Z,50.09
2018-09-17T20:44:42.143Z,50.09
2018-09-17T20:47:09.467Z,49.87
2018-09-17T20:49:36.831Z,51.00
2018-09-17T20:52:04.895Z,50.65
2018-09-17T20:54:32.136Z,50.05
2018-09-17T20:56:59.403Z,50.06
2018-09-17T20:59:26.633Z,50.01
2018-09-17T21:01:53.987Z,50.41
2018-09-17T21:04:21.242Z,50.54
2018-09-17T21:06:48.576Z,50.33
2018-09-17T21:09:15.864Z,50.60
2018-09-17T21:11:43.191Z,50.50
2018-09-17T21:14:10.631Z,50.29
2018-09-17T21:16:38.368Z,50.62
2018-09-17T21:19:05.757Z,50.14
2018-09-17T21:21:33.080Z,50.38
2018-09-17T21:24:00.522Z,49.95
2018-09-17T21:26:27.873Z,49.36
2018-09-17T21:28:55.128Z,49.78
2018-09-17T21:31:22.477Z,49.58
2018-09-17T21:33:49.982Z,49.76
2018-09-17T21:36:17.240Z,50.18
2018-09-17T21:38:44.461Z,50.21
2018-09-17T21:41:11.727Z,50.17
2018-09-17T21:43:39.287Z,50.64
2018-09-17T21:46:07.040Z,50.75
2018-09-17T21:48:34.333Z,51.00
2018-09-17T21:51:01.623Z,51.48
2018-09-17T21:53:28.898Z,50.84
2018-09-17T21:55:56.209Z,51.53
2018-09-17T21:58:23.467Z,52.55
2018-09-17T22:00:56.549Z,51.49
2018-09-17T22:03:23.851Z,51.92
2018-09-17T22:05:51.102Z,52.49
2018-09-17T22:08:18.363Z,52.03
2018-09-17T22:10:45.615Z,51.83
2018-09-17T22:13:12.891Z,51.21
2018-09-17T22:15:40.279Z,51.26
2018-09-17T22:18:07.571Z,51.03
2018-09-17T22:20:34.815Z,51.18
2018-09-17T22:23:02.306Z,50.40
2018-09-17T22:25:29.579Z,50.19
2018-09-17T22:27:56.863Z,50.05
2018-09-17T22:30:24.148Z,50.26
2018-09-17T22:32:51.437Z,50.07
2018-09-17T22:35:18.746Z,50.55
2018-09-17T22:37:45.982Z,51.13
2018-09-17T22:40:13.226Z,51.53
2018-09-17T22:42:40.486Z,51.82
2018-09-17T22:45:07.872Z,51.89
2018-09-17T22:47:35.151Z,52.54
2018-09-17T22:50:03.070Z,52.64
2018-09-17T22:52:30.383Z,52.40
2018-09-17T22:54:58.833Z,52.13
2018-09-17T22:57:26.248Z,52.07
2018-09-17T22:59:53.539Z,52.23
2018-09-17T23:02:20.844Z,51.91
2018-09-17T23:04:48.103Z,51.92
2018-09-17T23:07:15.382Z,51.62
2018-09-17T23:09:42.642Z,52.04
2018-09-17T23:12:09.919Z,52.03
2018-09-17T23:14:37.155Z,51.83
2018-09-17T23:17:04.509Z,52.47
2018-09-17T23:19:31.767Z,53.06
2018-09-17T23:21:59.026Z,53.17
2018-09-17T23:24:26.271Z,53.54
2018-09-17T23:26:53.871Z,53.47
2018-09-17T23:29:21.122Z,53.15
2018-09-17T23:31:48.352Z,52.53
2018-09-17T23:34:15.612Z,52.52
2018-09-17T23:36:42.853Z,52.06
2018-09-17T23:39:11.278Z,52.61
2018-09-17T23:41:39.006Z,51.88
2018-09-17T23:44:06.288Z,51.63
2018-09-17T23:46:33.952Z,52.12
2018-09-17T23:49:01.215Z,51.90
2018-09-17T23:51:28.462Z,52.10
2018-09-17T23:53:55.748Z,51.15
2018-09-17T23:56:22.986Z,50.70
2018-09-17T23:58:50.254Z,50.94
